sensor_id;sensor_type;location;lat;lon;timestamp;P1;durP1;ratioP1;P2;durP2;ratioP2
73859;SDS011;62197;51.632;13.700;2023-08-06T00:00:23;7.32;;;5.10;;
73859;SDS011;62197;51.632;13.700;2023-08-06T00:02:48;10.07;;;5.97;;
73859;SDS011;62197;51.632;13.700;2023-08-06T00:05:14;7.60;;;5.30;;
73859;SDS011;62197;51.632;13.700;2023-08-06T00:07:43;7.25;;;5.20;;
73859;SDS011;62197;51.632;13.700;2023-08-06T00:10:09;6.45;;;5.18;;
73859;SDS011;62197;51.632;13.700;2023-08-06T00:12:34;8.57;;;5.40;;
73859;SDS011;62197;51.632;13.700;2023-08-06T00:14:59;7.45;;;5.70;;
73859;SDS011;62197;51.632;13.700;2023-08-06T00:17:25;7.45;;;5.22;;
73859;SDS011;62197;51.632;13.700;2023-08-06T00:19:50;8.18;;;5.22;;
73859;SDS011;62197;51.632;13.700;2023-08-06T00:22:16;6.35;;;5.28;;
73859;SDS011;62197;51.632;13.700;2023-08-06T00:24:41;7.13;;;4.75;;
73859;SDS011;62197;51.632;13.700;2023-08-06T00:27:06;7.65;;;6.05;;
73859;SDS011;62197;51.632;13.700;2023-08-06T00:29:32;7.28;;;5.38;;
73859;SDS011;62197;51.632;13.700;2023-08-06T00:31:57;7.88;;;5.70;;
73859;SDS011;62197;51.632;13.700;2023-08-06T00:34:22;9.60;;;5.80;;
73859;SDS011;62197;51.632;13.700;2023-08-06T00:36:48;8.48;;;6.47;;
73859;SDS011;62197;51.632;13.700;2023-08-06T00:39:13;7.40;;;5.82;;
73859;SDS011;62197;51.632;13.700;2023-08-06T00:41:38;7.68;;;5.10;;
73859;SDS011;62197;51.632;13.700;2023-08-06T00:44:04;10.20;;;6.55;;
73859;SDS011;62197;51.632;13.700;2023-08-06T00:46:29;8.45;;;6.38;;
73859;SDS011;62197;51.632;13.700;2023-08-06T00:48:56;10.48;;;8.05;;
73859;SDS011;62197;51.632;13.700;2023-08-06T00:51:22;11.18;;;8.18;;
73859;SDS011;62197;51.632;13.700;2023-08-06T00:53:48;11.98;;;7.90;;
73859;SDS011;62197;51.632;13.700;2023-08-06T00:56:14;10.00;;;7.05;;
73859;SDS011;62197;51.632;13.700;2023-08-06T00:58:40;12.05;;;7.40;;
73859;SDS011;62197;51.632;13.700;2023-08-06T01:01:06;10.63;;;7.32;;
73859;SDS011;62197;51.632;13.700;2023-08-06T01:03:31;7.72;;;6.43;;
73859;SDS011;62197;51.632;13.700;2023-08-06T01:05:57;11.18;;;5.78;;
73859;SDS011;62197;51.632;13.700;2023-08-06T01:08:40;6.97;;;5.05;;
73859;SDS011;62197;51.632;13.700;2023-08-06T01:11:21;7.18;;;5.22;;
73859;SDS011;62197;51.632;13.700;2023-08-06T01:13:50;7.18;;;4.85;;
73859;SDS011;62197;51.632;13.700;2023-08-06T01:16:23;7.53;;;4.70;;
73859;SDS011;62197;51.632;13.700;2023-08-06T01:18:49;5.55;;;4.10;;
73859;SDS011;62197;51.632;13.700;2023-08-06T01:21:18;7.10;;;4.78;;
73859;SDS011;62197;51.632;13.700;2023-08-06T01:23:44;6.88;;;4.63;;
73859;SDS011;62197;51.632;13.700;2023-08-06T01:26:15;6.88;;;5.70;;
73859;SDS011;62197;51.632;13.700;2023-08-06T01:28:58;6.15;;;3.78;;
73859;SDS011;62197;51.632;13.700;2023-08-06T01:31:31;6.15;;;4.43;;
73859;SDS011;62197;51.632;13.700;2023-08-06T01:34:00;8.23;;;4.35;;
73859;SDS011;62197;51.632;13.700;2023-08-06T01:36:26;9.82;;;4.95;;
73859;SDS011;62197;51.632;13.700;2023-08-06T01:38:53;8.27;;;4.47;;
73859;SDS011;62197;51.632;13.700;2023-08-06T01:41:18;6.13;;;4.43;;
73859;SDS011;62197;51.632;13.700;2023-08-06T01:43:43;4.82;;;3.45;;
73859;SDS011;62197;51.632;13.700;2023-08-06T01:46:09;5.95;;;3.80;;
73859;SDS011;62197;51.632;13.700;2023-08-06T01:48:34;5.85;;;4.05;;
73859;SDS011;62197;51.632;13.700;2023-08-06T01:51:00;8.02;;;3.53;;
73859;SDS011;62197;51.632;13.700;2023-08-06T01:53:25;6.53;;;4.30;;
73859;SDS011;62197;51.632;13.700;2023-08-06T01:55:51;5.55;;;3.85;;
73859;SDS011;62197;51.632;13.700;2023-08-06T01:58:16;4.93;;;3.53;;
73859;SDS011;62197;51.632;13.700;2023-08-06T02:00:41;7.68;;;3.88;;
73859;SDS011;62197;51.632;13.700;2023-08-06T02:03:07;6.13;;;3.90;;
73859;SDS011;62197;51.632;13.700;2023-08-06T02:05:32;6.07;;;3.63;;
73859;SDS011;62197;51.632;13.700;2023-08-06T02:07:57;5.50;;;3.65;;
73859;SDS011;62197;51.632;13.700;2023-08-06T02:10:23;6.78;;;4.25;;
73859;SDS011;62197;51.632;13.700;2023-08-06T02:12:48;6.05;;;4.07;;
73859;SDS011;62197;51.632;13.700;2023-08-06T02:15:13;5.38;;;4.38;;
73859;SDS011;62197;51.632;13.700;2023-08-06T02:17:39;5.88;;;3.95;;
73859;SDS011;62197;51.632;13.700;2023-08-06T02:20:04;3.90;;;3.10;;
73859;SDS011;62197;51.632;13.700;2023-08-06T02:22:30;4.95;;;3.45;;
73859;SDS011;62197;51.632;13.700;2023-08-06T02:24:55;4.82;;;3.70;;
73859;SDS011;62197;51.632;13.700;2023-08-06T02:27:20;5.22;;;3.50;;
73859;SDS011;62197;51.632;13.700;2023-08-06T02:29:46;4.82;;;3.50;;
73859;SDS011;62197;51.632;13.700;2023-08-06T02:32:11;6.47;;;4.00;;
73859;SDS011;62197;51.632;13.700;2023-08-06T02:34:37;4.55;;;3.38;;
73859;SDS011;62197;51.632;13.700;2023-08-06T02:37:02;6.88;;;4.28;;
73859;SDS011;62197;51.632;13.700;2023-08-06T02:39:27;5.50;;;3.85;;
73859;SDS011;62197;51.632;13.700;2023-08-06T02:41:53;6.68;;;3.83;;
73859;SDS011;62197;51.632;13.700;2023-08-06T02:44:18;5.90;;;4.05;;
73859;SDS011;62197;51.632;13.700;2023-08-06T02:46:44;5.53;;;4.00;;
73859;SDS011;62197;51.632;13.700;2023-08-06T02:49:10;5.70;;;4.50;;
73859;SDS011;62197;51.632;13.700;2023-08-06T02:51:35;7.97;;;4.05;;
73859;SDS011;62197;51.632;13.700;2023-08-06T02:54:00;7.13;;;4.68;;
73859;SDS011;62197;51.632;13.700;2023-08-06T02:56:25;5.85;;;4.45;;
73859;SDS011;62197;51.632;13.700;2023-08-06T02:58:51;6.53;;;4.35;;
73859;SDS011;62197;51.632;13.700;2023-08-06T03:01:16;7.97;;;4.35;;
73859;SDS011;62197;51.632;13.700;2023-08-06T03:03:42;5.82;;;5.05;;
73859;SDS011;62197;51.632;13.700;2023-08-06T03:06:07;7.68;;;4.65;;
73859;SDS011;62197;51.632;13.700;2023-08-06T03:08:32;7.25;;;4.68;;
73859;SDS011;62197;51.632;13.700;2023-08-06T03:10:58;7.80;;;4.18;;
73859;SDS011;62197;51.632;13.700;2023-08-06T03:13:23;5.97;;;3.92;;
73859;SDS011;62197;51.632;13.700;2023-08-06T03:15:55;6.30;;;4.40;;
73859;SDS011;62197;51.632;13.700;2023-08-06T03:18:21;5.00;;;4.20;;
73859;SDS011;62197;51.632;13.700;2023-08-06T03:20:47;7.60;;;4.45;;
73859;SDS011;62197;51.632;13.700;2023-08-06T03:23:13;7.35;;;5.03;;
73859;SDS011;62197;51.632;13.700;2023-08-06T03:25:38;9.40;;;5.28;;
73859;SDS011;62197;51.632;13.700;2023-08-06T03:28:03;7.50;;;4.90;;
73859;SDS011;62197;51.632;13.700;2023-08-06T03:30:29;7.80;;;5.28;;
73859;SDS011;62197;51.632;13.700;2023-08-06T03:32:54;5.95;;;4.47;;
73859;SDS011;62197;51.632;13.700;2023-08-06T03:35:19;7.13;;;4.70;;
73859;SDS011;62197;51.632;13.700;2023-08-06T03:37:45;7.10;;;5.68;;
73859;SDS011;62197;51.632;13.700;2023-08-06T03:40:11;7.93;;;5.05;;
73859;SDS011;62197;51.632;13.700;2023-08-06T03:42:36;7.90;;;4.80;;
73859;SDS011;62197;51.632;13.700;2023-08-06T03:45:01;6.28;;;4.90;;
73859;SDS011;62197;51.632;13.700;2023-08-06T03:47:27;7.47;;;4.90;;
73859;SDS011;62197;51.632;13.700;2023-08-06T03:49:52;8.55;;;5.53;;
73859;SDS011;62197;51.632;13.700;2023-08-06T03:52:18;7.95;;;5.22;;
73859;SDS011;62197;51.632;13.700;2023-08-06T03:54:43;7.80;;;5.55;;
73859;SDS011;62197;51.632;13.700;2023-08-06T03:57:08;9.35;;;6.07;;
73859;SDS011;62197;51.632;13.700;2023-08-06T03:59:34;9.80;;;5.85;;
73859;SDS011;62197;51.632;13.700;2023-08-06T04:01:59;8.35;;;5.72;;
73859;SDS011;62197;51.632;13.700;2023-08-06T04:04:25;8.25;;;5.90;;
73859;SDS011;62197;51.632;13.700;2023-08-06T04:06:50;9.80;;;6.07;;
73859;SDS011;62197;51.632;13.700;2023-08-06T04:09:15;8.73;;;6.00;;
73859;SDS011;62197;51.632;13.700;2023-08-06T04:11:41;9.10;;;5.68;;
73859;SDS011;62197;51.632;13.700;2023-08-06T04:14:06;11.63;;;5.80;;
73859;SDS011;62197;51.632;13.700;2023-08-06T04:16:31;8.25;;;5.90;;
73859;SDS011;62197;51.632;13.700;2023-08-06T04:18:57;10.48;;;5.43;;
73859;SDS011;62197;51.632;13.700;2023-08-06T04:21:23;10.00;;;6.68;;
73859;SDS011;62197;51.632;13.700;2023-08-06T04:23:48;9.15;;;6.22;;
73859;SDS011;62197;51.632;13.700;2023-08-06T04:26:14;8.82;;;6.00;;
73859;SDS011;62197;51.632;13.700;2023-08-06T04:28:39;8.32;;;5.13;;
73859;SDS011;62197;51.632;13.700;2023-08-06T04:31:04;8.32;;;5.65;;
73859;SDS011;62197;51.632;13.700;2023-08-06T04:33:30;7.88;;;5.82;;
73859;SDS011;62197;51.632;13.700;2023-08-06T04:35:55;7.32;;;4.88;;
73859;SDS011;62197;51.632;13.700;2023-08-06T04:38:22;8.23;;;6.03;;
73859;SDS011;62197;51.632;13.700;2023-08-06T04:40:48;7.43;;;5.43;;
73859;SDS011;62197;51.632;13.700;2023-08-06T04:43:13;5.90;;;5.05;;
73859;SDS011;62197;51.632;13.700;2023-08-06T04:45:45;6.82;;;4.53;;
73859;SDS011;62197;51.632;13.700;2023-08-06T04:48:11;7.22;;;4.90;;
73859;SDS011;62197;51.632;13.700;2023-08-06T04:50:36;8.68;;;5.07;;
73859;SDS011;62197;51.632;13.700;2023-08-06T04:53:02;8.65;;;5.53;;
73859;SDS011;62197;51.632;13.700;2023-08-06T04:55:27;7.28;;;4.82;;
73859;SDS011;62197;51.632;13.700;2023-08-06T04:57:52;7.90;;;4.88;;
73859;SDS011;62197;51.632;13.700;2023-08-06T05:00:18;7.57;;;5.35;;
73859;SDS011;62197;51.632;13.700;2023-08-06T05:02:43;6.28;;;4.90;;
73859;SDS011;62197;51.632;13.700;2023-08-06T05:05:08;7.90;;;5.45;;
73859;SDS011;62197;51.632;13.700;2023-08-06T05:07:34;7.40;;;5.38;;
73859;SDS011;62197;51.632;13.700;2023-08-06T05:09:59;8.55;;;6.07;;
73859;SDS011;62197;51.632;13.700;2023-08-06T05:12:24;8.90;;;5.78;;
73859;SDS011;62197;51.632;13.700;2023-08-06T05:14:50;7.68;;;4.82;;
73859;SDS011;62197;51.632;13.700;2023-08-06T05:17:15;7.28;;;4.95;;
73859;SDS011;62197;51.632;13.700;2023-08-06T05:19:40;10.27;;;6.18;;
73859;SDS011;62197;51.632;13.700;2023-08-06T05:22:06;7.75;;;5.95;;
73859;SDS011;62197;51.632;13.700;2023-08-06T05:24:31;9.07;;;5.82;;
73859;SDS011;62197;51.632;13.700;2023-08-06T05:26:56;8.43;;;5.88;;
73859;SDS011;62197;51.632;13.700;2023-08-06T05:29:22;7.60;;;5.63;;
73859;SDS011;62197;51.632;13.700;2023-08-06T05:31:47;7.70;;;4.88;;
73859;SDS011;62197;51.632;13.700;2023-08-06T05:34:12;8.50;;;5.40;;
73859;SDS011;62197;51.632;13.700;2023-08-06T05:36:38;9.10;;;5.80;;
73859;SDS011;62197;51.632;13.700;2023-08-06T05:39:03;11.15;;;6.28;;
73859;SDS011;62197;51.632;13.700;2023-08-06T05:41:28;8.50;;;5.95;;
73859;SDS011;62197;51.632;13.700;2023-08-06T05:43:54;8.65;;;5.93;;
73859;SDS011;62197;51.632;13.700;2023-08-06T05:46:19;10.07;;;6.50;;
73859;SDS011;62197;51.632;13.700;2023-08-06T05:48:44;7.47;;;5.47;;
73859;SDS011;62197;51.632;13.700;2023-08-06T05:51:10;7.65;;;5.13;;
73859;SDS011;62197;51.632;13.700;2023-08-06T05:53:40;6.40;;;5.00;;
73859;SDS011;62197;51.632;13.700;2023-08-06T05:56:05;6.65;;;4.35;;
73859;SDS011;62197;51.632;13.700;2023-08-06T05:58:31;6.22;;;4.35;;
73859;SDS011;62197;51.632;13.700;2023-08-06T06:00:56;7.03;;;4.60;;
73859;SDS011;62197;51.632;13.700;2023-08-06T06:03:21;8.38;;;5.18;;
73859;SDS011;62197;51.632;13.700;2023-08-06T06:05:47;6.53;;;5.22;;
73859;SDS011;62197;51.632;13.700;2023-08-06T06:08:12;6.97;;;5.15;;
73859;SDS011;62197;51.632;13.700;2023-08-06T06:10:37;7.90;;;5.15;;
73859;SDS011;62197;51.632;13.700;2023-08-06T06:13:03;8.27;;;6.18;;
73859;SDS011;62197;51.632;13.700;2023-08-06T06:15:28;7.18;;;4.57;;
73859;SDS011;62197;51.632;13.700;2023-08-06T06:17:53;7.03;;;5.45;;
73859;SDS011;62197;51.632;13.700;2023-08-06T06:20:19;6.32;;;4.70;;
73859;SDS011;62197;51.632;13.700;2023-08-06T06:22:44;6.38;;;4.38;;
73859;SDS011;62197;51.632;13.700;2023-08-06T06:25:09;7.35;;;5.15;;
73859;SDS011;62197;51.632;13.700;2023-08-06T06:27:35;5.50;;;4.68;;
73859;SDS011;62197;51.632;13.700;2023-08-06T06:30:00;6.00;;;4.90;;
73859;SDS011;62197;51.632;13.700;2023-08-06T06:32:25;6.00;;;4.32;;
73859;SDS011;62197;51.632;13.700;2023-08-06T06:34:51;7.65;;;4.15;;
73859;SDS011;62197;51.632;13.700;2023-08-06T06:37:16;5.72;;;3.72;;
73859;SDS011;62197;51.632;13.700;2023-08-06T06:39:41;4.45;;;3.25;;
73859;SDS011;62197;51.632;13.700;2023-08-06T06:42:07;4.30;;;3.42;;
73859;SDS011;62197;51.632;13.700;2023-08-06T06:44:32;5.03;;;3.80;;
73859;SDS011;62197;51.632;13.700;2023-08-06T06:46:57;4.90;;;3.63;;
73859;SDS011;62197;51.632;13.700;2023-08-06T06:49:23;5.35;;;4.53;;
73859;SDS011;62197;51.632;13.700;2023-08-06T06:51:48;6.00;;;4.25;;
73859;SDS011;62197;51.632;13.700;2023-08-06T06:54:13;4.80;;;3.95;;
73859;SDS011;62197;51.632;13.700;2023-08-06T06:56:39;5.25;;;3.95;;
73859;SDS011;62197;51.632;13.700;2023-08-06T06:59:04;5.07;;;3.53;;
73859;SDS011;62197;51.632;13.700;2023-08-06T07:01:29;5.93;;;3.60;;
73859;SDS011;62197;51.632;13.700;2023-08-06T07:03:55;4.50;;;3.38;;
73859;SDS011;62197;51.632;13.700;2023-08-06T07:06:20;6.03;;;4.15;;
73859;SDS011;62197;51.632;13.700;2023-08-06T07:08:46;6.47;;;3.78;;
73859;SDS011;62197;51.632;13.700;2023-08-06T07:11:11;6.53;;;4.10;;
73859;SDS011;62197;51.632;13.700;2023-08-06T07:13:36;4.60;;;4.00;;
73859;SDS011;62197;51.632;13.700;2023-08-06T07:16:02;6.10;;;3.60;;
73859;SDS011;62197;51.632;13.700;2023-08-06T07:18:27;4.97;;;4.03;;
73859;SDS011;62197;51.632;13.700;2023-08-06T07:20:53;6.63;;;4.38;;
73859;SDS011;62197;51.632;13.700;2023-08-06T07:23:23;5.25;;;3.72;;
73859;SDS011;62197;51.632;13.700;2023-08-06T07:25:50;3.95;;;3.40;;
73859;SDS011;62197;51.632;13.700;2023-08-06T07:28:16;4.85;;;3.35;;
73859;SDS011;62197;51.632;13.700;2023-08-06T07:30:42;5.25;;;2.97;;
73859;SDS011;62197;51.632;13.700;2023-08-06T07:33:08;4.57;;;3.50;;
73859;SDS011;62197;51.632;13.700;2023-08-06T07:35:34;3.80;;;3.15;;
73859;SDS011;62197;51.632;13.700;2023-08-06T07:37:59;4.55;;;3.22;;
73859;SDS011;62197;51.632;13.700;2023-08-06T07:40:25;4.80;;;3.33;;
73859;SDS011;62197;51.632;13.700;2023-08-06T07:42:50;3.90;;;3.28;;
73859;SDS011;62197;51.632;13.700;2023-08-06T07:45:16;4.63;;;3.55;;
73859;SDS011;62197;51.632;13.700;2023-08-06T07:47:41;4.43;;;3.42;;
73859;SDS011;62197;51.632;13.700;2023-08-06T07:50:07;5.30;;;3.65;;
73859;SDS011;62197;51.632;13.700;2023-08-06T07:52:33;5.22;;;3.55;;
73859;SDS011;62197;51.632;13.700;2023-08-06T07:54:58;4.13;;;3.40;;
73859;SDS011;62197;51.632;13.700;2023-08-06T07:57:25;3.55;;;2.95;;
73859;SDS011;62197;51.632;13.700;2023-08-06T07:59:50;5.00;;;3.60;;
73859;SDS011;62197;51.632;13.700;2023-08-06T08:02:15;4.85;;;3.53;;
73859;SDS011;62197;51.632;13.700;2023-08-06T08:04:41;5.00;;;3.80;;
73859;SDS011;62197;51.632;13.700;2023-08-06T08:07:06;4.32;;;3.65;;
73859;SDS011;62197;51.632;13.700;2023-08-06T08:09:32;4.38;;;3.47;;
73859;SDS011;62197;51.632;13.700;2023-08-06T08:11:59;7.03;;;3.75;;
73859;SDS011;62197;51.632;13.700;2023-08-06T08:14:26;4.88;;;4.00;;
73859;SDS011;62197;51.632;13.700;2023-08-06T08:16:51;5.85;;;3.90;;
73859;SDS011;62197;51.632;13.700;2023-08-06T08:19:16;3.97;;;3.22;;
73859;SDS011;62197;51.632;13.700;2023-08-06T08:21:42;5.47;;;4.07;;
73859;SDS011;62197;51.632;13.700;2023-08-06T08:24:07;5.93;;;3.83;;
73859;SDS011;62197;51.632;13.700;2023-08-06T08:26:33;4.93;;;3.90;;
73859;SDS011;62197;51.632;13.700;2023-08-06T08:28:58;5.10;;;3.90;;
73859;SDS011;62197;51.632;13.700;2023-08-06T08:31:23;5.63;;;3.95;;
73859;SDS011;62197;51.632;13.700;2023-08-06T08:33:49;4.65;;;3.70;;
73859;SDS011;62197;51.632;13.700;2023-08-06T08:36:14;5.78;;;4.15;;
73859;SDS011;62197;51.632;13.700;2023-08-06T08:38:39;6.95;;;4.85;;
73859;SDS011;62197;51.632;13.700;2023-08-06T08:41:05;5.75;;;4.22;;
73859;SDS011;62197;51.632;13.700;2023-08-06T08:43:31;5.40;;;4.45;;
73859;SDS011;62197;51.632;13.700;2023-08-06T08:45:56;6.55;;;4.65;;
73859;SDS011;62197;51.632;13.700;2023-08-06T08:48:26;5.88;;;5.00;;
73859;SDS011;62197;51.632;13.700;2023-08-06T08:50:52;5.10;;;4.30;;
73859;SDS011;62197;51.632;13.700;2023-08-06T08:53:17;6.85;;;4.53;;
73859;SDS011;62197;51.632;13.700;2023-08-06T08:55:43;5.40;;;4.25;;
73859;SDS011;62197;51.632;13.700;2023-08-06T08:58:11;5.53;;;4.30;;
73859;SDS011;62197;51.632;13.700;2023-08-06T09:00:37;5.40;;;4.50;;
73859;SDS011;62197;51.632;13.700;2023-08-06T09:03:03;5.88;;;4.20;;
73859;SDS011;62197;51.632;13.700;2023-08-06T09:05:31;5.60;;;4.93;;
73859;SDS011;62197;51.632;13.700;2023-08-06T09:08:00;5.35;;;4.70;;
73859;SDS011;62197;51.632;13.700;2023-08-06T09:10:27;6.20;;;5.00;;
73859;SDS011;62197;51.632;13.700;2023-08-06T09:12:53;6.05;;;5.13;;
73859;SDS011;62197;51.632;13.700;2023-08-06T09:15:20;6.40;;;4.90;;
73859;SDS011;62197;51.632;13.700;2023-08-06T09:17:47;5.35;;;4.53;;
73859;SDS011;62197;51.632;13.700;2023-08-06T09:20:13;7.10;;;4.55;;
73859;SDS011;62197;51.632;13.700;2023-08-06T09:22:39;7.25;;;4.80;;
73859;SDS011;62197;51.632;13.700;2023-08-06T09:25:06;6.40;;;5.20;;
73859;SDS011;62197;51.632;13.700;2023-08-06T09:27:34;8.52;;;5.03;;
73859;SDS011;62197;51.632;13.700;2023-08-06T09:30:00;5.57;;;4.60;;
73859;SDS011;62197;51.632;13.700;2023-08-06T09:32:25;6.40;;;5.32;;
73859;SDS011;62197;51.632;13.700;2023-08-06T09:34:55;5.85;;;4.50;;
73859;SDS011;62197;51.632;13.700;2023-08-06T09:37:21;6.18;;;4.82;;
73859;SDS011;62197;51.632;13.700;2023-08-06T09:39:47;6.18;;;4.78;;
73859;SDS011;62197;51.632;13.700;2023-08-06T09:42:14;6.93;;;5.57;;
73859;SDS011;62197;51.632;13.700;2023-08-06T09:44:40;8.80;;;4.78;;
73859;SDS011;62197;51.632;13.700;2023-08-06T09:47:05;7.30;;;5.28;;
73859;SDS011;62197;51.632;13.700;2023-08-06T09:51:59;6.40;;;5.05;;
73859;SDS011;62197;51.632;13.700;2023-08-06T09:54:25;5.45;;;4.95;;
73859;SDS011;62197;51.632;13.700;2023-08-06T09:56:52;6.18;;;4.72;;
73859;SDS011;62197;51.632;13.700;2023-08-06T09:59:20;6.13;;;4.95;;
73859;SDS011;62197;51.632;13.700;2023-08-06T10:01:46;6.18;;;4.90;;
73859;SDS011;62197;51.632;13.700;2023-08-06T10:04:13;6.38;;;4.90;;
73859;SDS011;62197;51.632;13.700;2023-08-06T10:06:41;6.47;;;5.03;;
73859;SDS011;62197;51.632;13.700;2023-08-06T10:09:07;6.32;;;5.40;;
73859;SDS011;62197;51.632;13.700;2023-08-06T10:11:34;6.63;;;5.82;;
73859;SDS011;62197;51.632;13.700;2023-08-06T10:14:04;6.45;;;4.63;;
73859;SDS011;62197;51.632;13.700;2023-08-06T10:16:36;5.47;;;4.55;;
73859;SDS011;62197;51.632;13.700;2023-08-06T10:19:03;5.30;;;4.80;;
73859;SDS011;62197;51.632;13.700;2023-08-06T10:21:33;5.35;;;4.53;;
73859;SDS011;62197;51.632;13.700;2023-08-06T10:23:58;5.28;;;4.68;;
73859;SDS011;62197;51.632;13.700;2023-08-06T10:26:27;7.55;;;5.25;;
73859;SDS011;62197;51.632;13.700;2023-08-06T10:28:53;6.53;;;4.00;;
73859;SDS011;62197;51.632;13.700;2023-08-06T10:31:18;7.53;;;4.70;;
73859;SDS011;62197;51.632;13.700;2023-08-06T10:33:47;5.78;;;4.65;;
73859;SDS011;62197;51.632;13.700;2023-08-06T10:36:13;5.60;;;4.47;;
73859;SDS011;62197;51.632;13.700;2023-08-06T10:38:49;5.25;;;4.40;;
73859;SDS011;62197;51.632;13.700;2023-08-06T10:41:16;5.38;;;4.65;;
73859;SDS011;62197;51.632;13.700;2023-08-06T10:44:06;4.80;;;3.90;;
73859;SDS011;62197;51.632;13.700;2023-08-06T10:46:33;4.72;;;3.80;;
73859;SDS011;62197;51.632;13.700;2023-08-06T10:48:58;5.60;;;4.65;;
73859;SDS011;62197;51.632;13.700;2023-08-06T10:51:24;5.25;;;4.15;;
73859;SDS011;62197;51.632;13.700;2023-08-06T10:53:50;6.25;;;4.22;;
73859;SDS011;62197;51.632;13.700;2023-08-06T10:56:16;4.40;;;3.78;;
73859;SDS011;62197;51.632;13.700;2023-08-06T10:58:43;4.50;;;4.10;;
73859;SDS011;62197;51.632;13.700;2023-08-06T11:01:10;6.15;;;4.28;;
73859;SDS011;62197;51.632;13.700;2023-08-06T11:03:35;4.78;;;3.72;;
73859;SDS011;62197;51.632;13.700;2023-08-06T11:06:01;7.15;;;4.10;;
73859;SDS011;62197;51.632;13.700;2023-08-06T11:08:28;4.05;;;3.45;;
73859;SDS011;62197;51.632;13.700;2023-08-06T11:10:54;20.60;;;8.27;;
73859;SDS011;62197;51.632;13.700;2023-08-06T11:13:21;4.82;;;3.88;;
73859;SDS011;62197;51.632;13.700;2023-08-06T11:15:46;14.02;;;7.38;;
73859;SDS011;62197;51.632;13.700;2023-08-06T11:18:12;6.05;;;3.40;;
73859;SDS011;62197;51.632;13.700;2023-08-06T11:20:37;4.40;;;3.00;;
73859;SDS011;62197;51.632;13.700;2023-08-06T11:23:03;6.47;;;4.95;;
73859;SDS011;62197;51.632;13.700;2023-08-06T11:25:29;12.18;;;5.45;;
73859;SDS011;62197;51.632;13.700;2023-08-06T11:27:55;4.00;;;3.50;;
73859;SDS011;62197;51.632;13.700;2023-08-06T11:30:21;6.43;;;4.20;;
73859;SDS011;62197;51.632;13.700;2023-08-06T11:32:47;5.05;;;3.80;;
73859;SDS011;62197;51.632;13.700;2023-08-06T11:35:13;5.80;;;4.47;;
73859;SDS011;62197;51.632;13.700;2023-08-06T11:37:40;7.63;;;3.60;;
73859;SDS011;62197;51.632;13.700;2023-08-06T11:40:09;5.18;;;3.60;;
73859;SDS011;62197;51.632;13.700;2023-08-06T11:42:36;4.80;;;3.65;;
73859;SDS011;62197;51.632;13.700;2023-08-06T11:45:02;5.55;;;4.65;;
73859;SDS011;62197;51.632;13.700;2023-08-06T11:47:28;6.28;;;4.30;;
73859;SDS011;62197;51.632;13.700;2023-08-06T11:49:53;6.18;;;4.00;;
73859;SDS011;62197;51.632;13.700;2023-08-06T11:52:20;5.57;;;4.70;;
73859;SDS011;62197;51.632;13.700;2023-08-06T11:55:05;5.40;;;4.28;;
73859;SDS011;62197;51.632;13.700;2023-08-06T11:57:33;7.88;;;5.03;;
73859;SDS011;62197;51.632;13.700;2023-08-06T12:00:11;7.32;;;4.60;;
73859;SDS011;62197;51.632;13.700;2023-08-06T12:02:40;7.10;;;4.63;;
73859;SDS011;62197;51.632;13.700;2023-08-06T12:07:43;6.70;;;5.47;;
73859;SDS011;62197;51.632;13.700;2023-08-06T12:10:10;7.85;;;5.40;;
73859;SDS011;62197;51.632;13.700;2023-08-06T12:12:37;7.63;;;6.13;;
73859;SDS011;62197;51.632;13.700;2023-08-06T12:15:03;7.63;;;6.35;;
73859;SDS011;62197;51.632;13.700;2023-08-06T12:17:29;8.98;;;6.50;;
73859;SDS011;62197;51.632;13.700;2023-08-06T12:19:54;9.50;;;7.55;;
73859;SDS011;62197;51.632;13.700;2023-08-06T12:22:20;10.13;;;7.07;;
73859;SDS011;62197;51.632;13.700;2023-08-06T12:24:46;9.02;;;6.35;;
73859;SDS011;62197;51.632;13.700;2023-08-06T12:27:12;8.40;;;6.25;;
73859;SDS011;62197;51.632;13.700;2023-08-06T12:29:41;7.43;;;5.70;;
73859;SDS011;62197;51.632;13.700;2023-08-06T12:32:08;8.10;;;5.90;;
73859;SDS011;62197;51.632;13.700;2023-08-06T12:34:33;8.77;;;7.35;;
73859;SDS011;62197;51.632;13.700;2023-08-06T12:36:58;9.18;;;6.63;;
73859;SDS011;62197;51.632;13.700;2023-08-06T12:39:24;7.10;;;6.10;;
73859;SDS011;62197;51.632;13.700;2023-08-06T12:41:49;10.45;;;6.32;;
73859;SDS011;62197;51.632;13.700;2023-08-06T12:44:15;7.72;;;5.88;;
73859;SDS011;62197;51.632;13.700;2023-08-06T12:46:40;9.48;;;7.07;;
73859;SDS011;62197;51.632;13.700;2023-08-06T12:49:05;8.15;;;6.50;;
73859;SDS011;62197;51.632;13.700;2023-08-06T12:51:31;9.32;;;6.75;;
73859;SDS011;62197;51.632;13.700;2023-08-06T12:53:58;7.88;;;6.50;;
73859;SDS011;62197;51.632;13.700;2023-08-06T12:56:24;8.45;;;6.45;;
73859;SDS011;62197;51.632;13.700;2023-08-06T12:58:49;8.25;;;7.03;;
73859;SDS011;62197;51.632;13.700;2023-08-06T13:01:14;9.95;;;6.57;;
73859;SDS011;62197;51.632;13.700;2023-08-06T13:03:40;8.35;;;6.78;;
73859;SDS011;62197;51.632;13.700;2023-08-06T13:06:05;10.73;;;7.57;;
73859;SDS011;62197;51.632;13.700;2023-08-06T13:08:30;9.43;;;7.65;;
73859;SDS011;62197;51.632;13.700;2023-08-06T13:10:56;9.90;;;7.80;;
73859;SDS011;62197;51.632;13.700;2023-08-06T13:13:21;11.05;;;7.88;;
73859;SDS011;62197;51.632;13.700;2023-08-06T13:15:46;11.02;;;7.88;;
73859;SDS011;62197;51.632;13.700;2023-08-06T13:18:12;11.68;;;7.50;;
73859;SDS011;62197;51.632;13.700;2023-08-06T13:20:38;11.88;;;8.35;;
73859;SDS011;62197;51.632;13.700;2023-08-06T13:23:06;9.63;;;8.02;;
73859;SDS011;62197;51.632;13.700;2023-08-06T13:25:32;12.60;;;9.27;;
73859;SDS011;62197;51.632;13.700;2023-08-06T13:28:01;8.65;;;6.97;;
73859;SDS011;62197;51.632;13.700;2023-08-06T13:30:27;10.20;;;7.40;;
73859;SDS011;62197;51.632;13.700;2023-08-06T13:32:52;10.45;;;8.07;;
73859;SDS011;62197;51.632;13.700;2023-08-06T13:35:18;10.27;;;8.60;;
73859;SDS011;62197;51.632;13.700;2023-08-06T13:37:43;18.95;;;10.40;;
73859;SDS011;62197;51.632;13.700;2023-08-06T13:40:08;11.95;;;8.25;;
73859;SDS011;62197;51.632;13.700;2023-08-06T13:42:34;10.75;;;8.18;;
73859;SDS011;62197;51.632;13.700;2023-08-06T13:44:59;9.55;;;6.85;;
73859;SDS011;62197;51.632;13.700;2023-08-06T13:47:28;7.95;;;6.07;;
73859;SDS011;62197;51.632;13.700;2023-08-06T13:49:53;8.40;;;5.85;;
73859;SDS011;62197;51.632;13.700;2023-08-06T13:52:20;8.65;;;7.05;;
73859;SDS011;62197;51.632;13.700;2023-08-06T13:54:46;6.75;;;5.03;;
73859;SDS011;62197;51.632;13.700;2023-08-06T13:57:11;9.52;;;6.53;;
73859;SDS011;62197;51.632;13.700;2023-08-06T13:59:37;8.18;;;6.53;;
73859;SDS011;62197;51.632;13.700;2023-08-06T14:02:03;6.57;;;5.70;;
73859;SDS011;62197;51.632;13.700;2023-08-06T14:04:28;7.40;;;5.10;;
73859;SDS011;62197;51.632;13.700;2023-08-06T14:06:54;7.47;;;5.70;;
73859;SDS011;62197;51.632;13.700;2023-08-06T14:09:19;8.60;;;6.03;;
73859;SDS011;62197;51.632;13.700;2023-08-06T14:11:44;8.55;;;5.75;;
73859;SDS011;62197;51.632;13.700;2023-08-06T14:14:10;7.95;;;5.57;;
73859;SDS011;62197;51.632;13.700;2023-08-06T14:16:36;7.80;;;5.15;;
73859;SDS011;62197;51.632;13.700;2023-08-06T14:19:01;7.32;;;5.45;;
73859;SDS011;62197;51.632;13.700;2023-08-06T14:21:27;6.90;;;5.18;;
73859;SDS011;62197;51.632;13.700;2023-08-06T14:23:52;6.32;;;5.43;;
73859;SDS011;62197;51.632;13.700;2023-08-06T14:26:17;8.70;;;6.28;;
73859;SDS011;62197;51.632;13.700;2023-08-06T14:28:43;7.78;;;5.97;;
73859;SDS011;62197;51.632;13.700;2023-08-06T14:31:08;6.30;;;5.60;;